< Typhoon 196739 1968 Season Typhoon 196802 >
Typhoon 196801 (JEAN)
General InformationTrack Information on Google Maps || Disaster Info.ResourceGoogle EarthGE AnimationAtom FeedGeoJSON
Detalied Best Track (Time Zone = UTC)
Year Month Day Hour Lat. Long. Pressure (hPa) Wind (kt) Class Image Chart
1968 4 5 12 4.6 157.4 1004 0 2 -- Chart
1968 4 5 18 5.0 157.0 1004 0 2 -- Chart
1968 4 6 00 5.3 156.8 1004 0 2 -- Chart
1968 4 6 06 5.8 156.5 1000 0 2 -- Chart
1968 4 6 12 6.3 156.2 1000 0 2 -- Chart
1968 4 6 18 6.7 155.8 998 0 2 -- Chart
1968 4 7 00 7.2 155.5 996 0 2 -- Chart
1968 4 7 06 7.7 155.3 996 0 9 -- Chart
1968 4 7 12 8.0 154.9 994 0 9 -- Chart
1968 4 7 18 8.3 154.2 992 0 9 -- Chart
1968 4 8 00 8.7 153.3 990 0 9 -- Chart
1968 4 8 06 9.6 152.9 988 0 9 -- Chart
1968 4 8 12 9.8 152.3 985 0 9 -- Chart
1968 4 8 18 9.6 151.6 980 0 9 -- Chart
1968 4 9 00 9.9 151.4 970 0 9 -- Chart
1968 4 9 06 10.3 151.1 965 0 9 -- Chart
1968 4 9 12 10.6 150.8 955 0 9 -- Chart
1968 4 9 18 11.2 150.0 950 0 9 -- Chart
1968 4 10 00 11.8 149.2 950 0 9 -- Chart
1968 4 10 06 12.5 148.6 935 0 9 -- Chart
1968 4 10 12 13.3 148.2 935 0 9 -- Chart
1968 4 10 18 13.8 147.2 935 0 9 -- Chart
1968 4 11 00 14.1 146.5 935 0 9 -- Chart
1968 4 11 06 15.0 146.0 935 0 9 -- Chart
1968 4 11 12 15.6 145.5 940 0 9 -- Chart
1968 4 11 18 16.0 145.0 945 0 9 -- Chart
1968 4 12 00 16.6 144.9 950 0 9 -- Chart
1968 4 12 06 17.6 144.9 955 0 9 -- Chart
1968 4 12 12 18.4 145.0 960 0 9 -- Chart
1968 4 12 18 19.1 145.2 962 0 9 -- Chart
1968 4 13 00 19.9 145.2 965 0 9 -- Chart
1968 4 13 06 20.1 145.4 970 0 9 -- Chart
1968 4 13 12 20.3 145.4 975 0 9 -- Chart
1968 4 13 18 20.5 145.4 980 0 9 -- Chart
1968 4 14 00 20.7 145.1 985 0 9 -- Chart
1968 4 14 06 20.8 144.9 988 0 9 -- Chart
1968 4 14 12 20.9 145.0 990 0 9 -- Chart
1968 4 14 18 21.2 145.1 995 0 9 -- Chart
1968 4 15 00 21.7 145.3 998 0 9 -- Chart
1968 4 15 06 22.0 145.4 999 0 9 -- Chart
1968 4 15 12 22.1 145.5 1000 0 9 -- Chart
1968 4 15 18 22.3 145.5 1001 0 9 -- Chart
1968 4 16 00 22.5 145.7 1002 0 9 -- Chart
1968 4 16 06 22.8 145.8 1002 0 9 -- Chart
1968 4 16 12 23.0 145.9 1002 0 9 -- Chart
1968 4 16 18 23.1 145.7 1003 0 9 -- Chart
1968 4 17 00 23.3 145.4 1004 0 2 -- Chart
1968 4 17 06 23.5 145.0 1004 0 2 -- Chart
1968 4 17 12 23.6 144.5 1004 0 2 -- Chart
1968 4 17 18 24.0 144.0 1004 0 2 -- Chart
1968 4 18 00 24.5 143.5 1006 0 2 -- Chart
1968 4 18 06 25.2 143.5 1006 0 2 -- Chart
1968 4 18 12 25.9 143.9 1006 0 2 -- Chart
1968 4 18 18 26.4 144.4 1006 0 2 -- Chart
1968 4 19 00 27.0 145.0 1006 0 2 -- Chart
1968 4 19 06 28.0 145.8 1006 0 2 -- Chart
1968 4 19 12 29.0 147.0 1006 0 2 -- Chart
1968 4 19 18 30.0 149.0 1006 0 2 -- Chart
Japan Meteorological Agency Best Track Data | Correction Date : 1989-06-01
< Typhoon 196739 1968 Season Typhoon 196802 >

Help